• Join FlightAware (Why Join?)
  • Login
  • US Flag 
08:30AM EST


 

Airport Tracker/Info


-or-


 

Live Flight TrackerFlight Track Log ✈ AAL2007 ✈ 23-Apr-2013 ✈ KORD - KAUS

Flight Track Log - Related Links

Times and Time Zones

All times are in EDT time to prevent confusion due to time zone crossing. See the AAL2007 flight status page for this flight to view local times or setup timezone preferences in your user account.

Time Position Orientation Groundspeed Altitude Reporting Facility
EDT Latitude Longitude Course Direction KTS MPH feet Rate Location/Type
06:18PM 41.9667 -87.9333 207° Southwest 182 209 2,000  Level Chicago TRACON
06:19PM 41.9000 -87.9333 180° South 230 265 4,600 2,940 Climbing Chicago TRACON
06:20PM 41.7402 -88.1485 201° Southwest  Level Estimated
06:20PM 41.8333 -87.9333 180° South 248 285 7,900  Level Chicago TRACON
06:21PM 41.6597 -88.2287 197° South  Level Estimated
06:21PM 41.8136 -87.9294 172° South 240 276 9,200  Level Chicago Center
06:22PM 41.5625 -88.1948 165° South  Level FlightAware Approximate
06:22PM 41.7533 -87.9683 206° Southwest 240 276 12,400  Level Chicago Center
06:23PM 41.4822 -88.2754 194° South  Level Estimated
06:23PM 41.6903 -88.0089 206° Southwest 252 290 14,500  Level Chicago Center
06:24PM 41.4007 -88.3568 207° Southwest  Level Estimated
06:24PM 41.6169 -88.0322 193° South 276 318 15,800  Level Chicago Center
06:25PM 41.5217 -88.0364 182° South 286 329 17,100 720 Climbing Chicago Center
06:26PM 41.4486 -88.0386 181° South 290 334 17,300 900 Climbing Chicago Center
06:27PM 41.3497 -88.0119 169° South 310 357 19,000 1,260 Climbing Chicago Center
06:28PM 41.2567 -88.0011 175° South 347 399 20,000 1,020 Climbing Chicago Center
06:29PM 41.1742 -88.0622 209° Southwest 341 392 21,200 1,440 Climbing Chicago Center
06:30PM 41.0861 -88.1261 209° Southwest 356 410 23,000 1,800 Climbing Chicago Center
06:31PM 40.9989 -88.1900 209° Southwest 360 414 25,000 2,040 Climbing Chicago Center
06:32PM 40.9117 -88.2497 207° Southwest 354 407 27,300 1,800 Climbing Chicago Center
06:33PM 40.8072 -88.3250 209° Southwest 357 411 28,800 1,200 Climbing Chicago Center
06:34PM 40.7178 -88.3886 208° Southwest 365 420 29,900 960 Climbing Chicago Center
06:35PM 40.6250 -88.4539 208° Southwest 376 433 30,800 960 Climbing Chicago Center
06:36PM 40.5317 -88.5181 208° Southwest 380 437 32,000 600 Climbing Chicago Center
06:37PM 40.4319 -88.5875 208° Southwest 379 436 32,100 480 Climbing Chicago Center
06:38PM 40.3403 -88.6525 208° Southwest 374 430 33,000 420 Climbing Chicago Center
06:39PM 40.2614 -88.7381 220° Southwest 367 422 33,000  Level Chicago Center
06:40PM 40.1881 -88.8339 225° Southwest 370 426 33,100 480 Climbing Chicago Center
06:41PM 40.1125 -88.9297 224° Southwest 371 427 34,000 420 Climbing Kansas City Center
06:42PM 40.0383 -89.0228 224° Southwest 370 426 34,000  Level Kansas City Center
06:43PM 39.9650 -89.1153 224° Southwest 367 422 34,000  Level Kansas City Center
06:44PM 39.8931 -89.2086 225° Southwest 365 420 34,000  Level Kansas City Center
06:45PM 39.8189 -89.2994 223° Southwest 365 420 34,000  Level Kansas City Center
06:46PM 39.7458 -89.3928 225° Southwest 366 421 34,000  Level Kansas City Center
06:47PM 39.6661 -89.4911 224° Southwest 367 422 34,000  Level Kansas City Center
06:48PM 39.5931 -89.5853 225° Southwest 369 425 34,000  Level Kansas City Center
06:49PM 39.5194 -89.6758 224° Southwest 367 422 34,000  Level Kansas City Center
06:50PM 39.4456 -89.7672 224° Southwest 368 423 34,000  Level Kansas City Center
06:51PM 39.3572 -89.8767 224° Southwest 368 423 34,000  Level Kansas City Center
06:52PM 39.2833 -89.9672 224° Southwest 368 423 34,000  Level Kansas City Center
06:54PM 39.2100 -90.0586 224° Southwest 368 423 34,000  Level Kansas City Center
06:55PM 39.1358 -90.1494 224° Southwest 369 425 34,000  Level Kansas City Center
06:56PM 39.0628 -90.2394 224° Southwest 366 421 34,000  Level Kansas City Center
06:57PM 38.9892 -90.3286 223° Southwest 367 422 34,000  Level Kansas City Center
06:58PM 38.9050 -90.4328 224° Southwest 359 413 34,000  Level Kansas City Center
06:59PM 38.8322 -90.5214 223° Southwest 358 412 34,000  Level Kansas City Center
07:00PM 38.7550 -90.6067 221° Southwest 360 414 34,000  Level Kansas City Center
07:01PM 38.6817 -90.6917 222° Southwest 374 430 34,000  Level Kansas City Center
07:02PM 38.5925 -90.7947 222° Southwest 366 421 34,000  Level Kansas City Center
07:03PM 38.5183 -90.8783 221° Southwest 362 417 34,000  Level Kansas City Center
07:04PM 38.4431 -90.9653 222° Southwest 368 423 34,000  Level Kansas City Center
07:05PM 38.3661 -91.0531 222° Southwest 373 429 34,000  Level Kansas City Center
07:06PM 38.2908 -91.1367 221° Southwest 365 420 34,000  Level Kansas City Center
07:07PM 38.2153 -91.2225 222° Southwest 365 420 34,000  Level Kansas City Center
07:08PM 38.1303 -91.3186 222° Southwest 367 422 34,000  Level Kansas City Center
07:09PM 38.0539 -91.4053 222° Southwest 368 423 34,000  Level Kansas City Center
07:10PM 37.9764 -91.4922 221° Southwest 368 423 34,000  Level Kansas City Center
07:11PM 37.8836 -91.5969 222° Southwest 368 423 34,000  Level Kansas City Center
07:12PM 37.8067 -91.6831 221° Southwest 368 423 34,000  Level Kansas City Center
07:13PM 37.7306 -91.7689 222° Southwest 364 419 34,000  Level Kansas City Center
07:14PM 37.6539 -91.8561 222° Southwest 364 419 34,000  Level Kansas City Center
07:15PM 37.5767 -91.9406 221° Southwest 364 419 34,000  Level Kansas City Center
07:16PM 37.5006 -92.0256 222° Southwest 363 418 34,000  Level Kansas City Center
07:17PM 37.4239 -92.1100 221° Southwest 363 418 34,000  Level Kansas City Center
07:18PM 37.3472 -92.1958 222° Southwest 364 419 34,000  Level Kansas City Center
07:19PM 37.2700 -92.2806 221° Southwest 365 420 34,000  Level Kansas City Center
07:20PM 37.1936 -92.3647 221° Southwest 364 419 34,000  Level Kansas City Center
07:21PM 37.1017 -92.4658 221° Southwest 363 418 34,000  Level Kansas City Center
07:22PM 37.0242 -92.5481 220° Southwest 362 417 34,000  Level Kansas City Center
07:23PM 36.9486 -92.6319 222° Southwest 361 415 34,000  Level Kansas City Center
07:24PM 36.8719 -92.7147 221° Southwest 362 417 34,000  Level Kansas City Center
07:25PM 36.8125 -92.7800 221° Southwest 369 425 34,000  Level Memphis Center
07:26PM 36.7358 -92.8631 221° Southwest 369 425 34,000  Level Memphis Center
07:27PM 36.6614 -92.9436 221° Southwest 369 425 34,000  Level Memphis Center
07:28PM 36.5847 -93.0239 220° Southwest 369 425 34,000  Level Memphis Center
07:29PM 36.5036 -93.1114 221° Southwest 369 425 34,000  Level Memphis Center
07:30PM 36.4331 -93.1839 220° Southwest 369 425 34,000  Level Memphis Center
07:31PM 36.3561 -93.2664 221° Southwest 369 425 34,000  Level Memphis Center
07:32PM 36.2814 -93.3433 220° Southwest 369 425 34,000  Level Memphis Center
07:33PM 36.2044 -93.4231 220° Southwest 369 425 34,000  Level Memphis Center
07:34PM 36.1294 -93.5050 221° Southwest 369 425 34,000  Level Memphis Center
07:35PM 36.0503 -93.5867 220° Southwest 369 425 34,000  Level Memphis Center
07:36PM 35.9731 -93.6656 220° Southwest 369 425 34,000  Level Memphis Center
07:37PM 35.9000 -93.7472 222° Southwest 369 425 34,000  Level Memphis Center
07:38PM 35.8206 -93.8258 219° Southwest 369 425 34,000  Level Memphis Center
07:39PM 35.7411 -93.9069 220° Southwest 369 425 34,000  Level Memphis Center
07:40PM 35.6658 -93.9881 221° Southwest 369 425 34,000  Level Memphis Center
07:41PM 35.5864 -94.0664 219° Southwest 369 425 34,000  Level Memphis Center
07:42PM 35.5108 -94.1472 221° Southwest 369 425 34,000  Level Memphis Center
07:43PM 35.4314 -94.2250 219° Southwest 369 425 34,000  Level Memphis Center
07:45PM 35.2425 -94.3886 215° Southwest 379 436 34,000  Level Fort Worth Center
07:46PM 35.1544 -94.4553 212° Southwest 379 436 34,000  Level Fort Worth Center
07:47PM 35.0622 -94.5244 212° Southwest 379 436 34,000  Level Fort Worth Center
07:48PM 34.9742 -94.5908 212° Southwest 385 443 34,000  Level Fort Worth Center
07:49PM 34.8858 -94.6569 212° Southwest 385 443 34,000  Level Fort Worth Center
07:50PM 34.7956 -94.7308 214° Southwest 385 443 34,000  Level Fort Worth Center
07:51PM 34.7072 -94.7967 211° Southwest 385 443 34,000  Level Fort Worth Center
07:52PM 34.6169 -94.8625 211° Southwest 385 443 34,000  Level Fort Worth Center
07:53PM 34.5306 -94.9256 211° Southwest 379 436 34,000  Level Fort Worth Center
07:54PM 34.4442 -94.9911 212° Southwest 385 443 34,000  Level Fort Worth Center
07:55PM 34.3517 -95.0589 211° Southwest 385 443 34,000  Level Fort Worth Center
07:56PM 34.2631 -95.1292 213° Southwest 379 436 34,000  Level Fort Worth Center
07:57PM 34.1767 -95.1917 211° Southwest 384 442 34,000  Level Fort Worth Center
07:58PM 34.0861 -95.2594 212° Southwest 384 442 34,000  Level Fort Worth Center
07:59PM 33.9953 -95.3242 211° Southwest 384 442 34,000  Level Fort Worth Center
08:00PM 33.9128 -95.3861 212° Southwest 384 442 34,000  Level Fort Worth Center
08:01PM 33.8242 -95.4533 212° Southwest 389 448 34,000  Level Fort Worth Center
08:02PM 33.7356 -95.5178 211° Southwest 384 442 34,000  Level Fort Worth Center
08:03PM 33.6467 -95.5819 211° Southwest 384 442 34,000  Level Fort Worth Center
08:04PM 33.5517 -95.6489 210° Southwest 378 435 34,000  Level Fort Worth Center
08:05PM 33.4628 -95.7178 213° Southwest 379 436 34,000  Level Fort Worth Center
08:06PM 33.3697 -95.7817 210° Southwest 384 442 34,000  Level Fort Worth Center
08:07PM 33.2808 -95.8456 211° Southwest 384 442 34,000  Level Fort Worth Center
08:08PM 33.1917 -95.9092 211° Southwest 384 442 34,000  Level Fort Worth Center
08:09PM 33.1008 -95.9753 211° Southwest 384 442 34,000  Level Fort Worth Center
08:10PM 33.0097 -96.0411 211° Southwest 384 442 34,000  Level Fort Worth Center
08:11PM 32.9289 -96.1017 212° Southwest 379 436 34,000  Level Fort Worth Center
08:12PM 32.8378 -96.1647 210° Southwest 384 442 34,000  Level Fort Worth Center
08:13PM 32.7464 -96.2278 210° Southwest 384 442 34,000  Level Fort Worth Center
08:14PM 32.6553 -96.2956 212° Southwest 384 442 34,000  Level Fort Worth Center
08:15PM 32.5639 -96.3583 210° Southwest 384 442 34,000  Level Fort Worth Center
08:16PM 32.4642 -96.4286 211° Southwest 384 442 34,000  Level Fort Worth Center
08:17PM 32.3750 -96.4933 212° Southwest 384 442 34,000 -60 Level Fort Worth Center
08:18PM 32.2856 -96.5558 211° Southwest 384 442 33,900 -840 Descending Fort Worth Center
08:19PM 32.1919 -96.6131 207° Southwest 384 442 32,400 -1,800 Descending Fort Worth Center
08:20PM 32.0942 -96.6728 207° Southwest 384 442 30,400 -1,800 Descending Fort Worth Center
08:21PM 31.9964 -96.7347 208° Southwest 394 453 28,800 -1,260 Descending Fort Worth Center
08:22PM 31.9092 -96.7869 207° Southwest 394 453 27,900 -1,020 Descending Fort Worth Center
08:23PM 31.8050 -96.8511 208° Southwest 399 459 26,800 -1,140 Descending Fort Worth Center
08:24PM 31.7050 -96.9128 208° Southwest 411 473 25,700 -1,140 Descending Fort Worth Center
08:25PM 31.6008 -96.9767 208° Southwest 411 473 24,600 -1,200 Descending Fort Worth Center
08:26PM 31.4958 -97.0383 207° Southwest 412 474 23,300 -1,260 Descending Houston Center
08:28PM 31.3947 -97.0997 207° Southwest 406 467 22,000 -1,440 Descending Houston Center
08:29PM 31.2806 -97.1678 207° Southwest 393 452 20,400 -1,680 Descending Houston Center
08:30PM 31.1853 -97.2208 205° Southwest 379 436 18,600 -1,860 Descending Houston Center
08:31PM 31.0850 -97.2608 199° South 376 433 16,600 -1,980 Descending Houston Center
08:32PM 30.9881 -97.2986 198° South 370 426 14,600 -1,620 Descending Houston Center
08:33PM 30.8944 -97.3350 198° South 369 425 13,300 -900 Descending Houston Center
08:34PM 30.7864 -97.3758 198° South 352 405 12,800 -840 Descending Houston Center
08:35PM 30.7039 -97.4069 198° South 321 369 11,700 -1,260 Descending Houston Center
08:36PM 30.6311 -97.4344 198° South 284 327 10,300 -1,380 Descending Houston Center
08:37PM 30.5581 -97.4628 198° South 275 316 8,900 -1,140 Descending Houston Center
08:38PM 30.4897 -97.4894 199° South 263 303 8,000 -1,200 Descending Houston Center
08:39PM 30.4197 -97.5167 199° South 261 300 6,500 -1,080 Descending Houston Center
08:40PM 30.3497 -97.5403 196° South 260 299 5,900 -900 Descending Houston Center
08:41PM 30.2786 -97.5353 177° South 254 292 4,700 -1,440 Descending Houston Center
08:42PM 30.2094 -97.5311 177° South 248 285 3,000 -1,320 Descending Houston Center
08:43PM 30.1336 -97.5250 176° South 235 270 2,000 -1,020 Descending Houston Center